createdAt,value
2022-08-01T00:00:02.622Z,20.55
2022-08-01T00:01:02.577Z,20.59
2022-08-01T00:02:02.887Z,20.52
2022-08-01T00:03:02.493Z,20.59
2022-08-01T00:04:02.449Z,20.55
2022-08-01T00:05:02.404Z,20.56
2022-08-01T00:06:02.359Z,20.63
2022-08-01T00:07:02.317Z,20.63
2022-08-01T00:08:02.275Z,20.60
2022-08-01T00:09:02.229Z,20.52
2022-08-01T00:10:02.187Z,20.63
2022-08-01T00:11:03.007Z,20.52
2022-08-01T00:12:02.101Z,20.58
2022-08-01T00:13:02.057Z,20.63
2022-08-01T00:14:02.014Z,20.64
2022-08-01T00:15:01.970Z,20.59
2022-08-01T00:16:01.931Z,20.66
2022-08-01T00:17:07.074Z,20.55
2022-08-01T00:18:01.841Z,20.59
2022-08-01T00:19:01.797Z,20.55
2022-08-01T00:20:01.759Z,20.56
2022-08-01T00:21:01.713Z,20.53
2022-08-01T00:22:01.668Z,20.53
2022-08-01T00:23:01.624Z,20.56
2022-08-01T00:24:01.586Z,20.63
2022-08-01T00:25:01.539Z,20.58
2022-08-01T00:26:01.500Z,20.58
2022-08-01T00:27:01.452Z,20.46
2022-08-01T00:28:01.425Z,20.53
2022-08-01T00:29:01.365Z,20.58
2022-08-01T00:30:11.916Z,20.56
2022-08-01T00:31:01.279Z,20.52
2022-08-01T00:36:21.588Z,20.58
2022-08-01T00:37:21.542Z,20.56
2022-08-01T00:38:21.502Z,20.55
2022-08-01T00:39:21.456Z,20.59
2022-08-01T00:40:21.412Z,20.60
2022-08-01T00:41:21.368Z,20.50
2022-08-01T00:42:21.327Z,20.48
2022-08-01T00:43:21.283Z,20.59
2022-08-01T00:44:21.243Z,20.53
2022-08-01T00:45:21.197Z,20.49
2022-08-01T00:46:21.155Z,20.52
2022-08-01T00:47:21.119Z,20.58
2022-08-01T00:48:21.068Z,20.58
2022-08-01T00:49:21.170Z,20.59
2022-08-01T00:50:20.984Z,20.60
2022-08-01T00:51:20.940Z,20.55
2022-08-01T00:52:20.896Z,20.58
2022-08-01T00:53:20.855Z,20.53
2022-08-01T00:54:20.810Z,20.59
2022-08-01T00:55:20.766Z,20.49
2022-08-01T00:56:20.723Z,20.52
2022-08-01T00:57:27.909Z,20.49
2022-08-01T00:58:20.638Z,20.50
2022-08-01T00:59:20.592Z,20.48
2022-08-01T01:00:20.599Z,20.48
2022-08-01T01:01:20.535Z,20.55
2022-08-01T01:02:20.465Z,20.52
2022-08-01T01:03:20.421Z,20.53
2022-08-01T01:04:20.382Z,20.53
2022-08-01T01:05:20.333Z,20.53
2022-08-01T01:07:20.249Z,20.48
2022-08-01T01:08:20.205Z,20.50
2022-08-01T01:09:20.162Z,20.52
2022-08-01T01:10:20.120Z,20.53
2022-08-01T01:11:20.078Z,20.44
2022-08-01T01:12:20.031Z,20.44
2022-08-01T01:13:19.989Z,20.42
2022-08-01T01:14:19.945Z,20.48
2022-08-01T01:15:19.905Z,20.49
2022-08-01T01:16:19.860Z,20.53
2022-08-01T01:17:49.551Z,20.48
2022-08-01T01:18:19.772Z,20.49
2022-08-01T01:19:19.730Z,20.52
2022-08-01T01:20:19.686Z,20.52
2022-08-01T01:21:22.614Z,20.52
2022-08-01T01:22:19.599Z,20.52
2022-08-01T01:23:19.562Z,20.48
2022-08-01T01:24:19.512Z,20.48
2022-08-01T01:25:19.470Z,20.48
2022-08-01T01:26:19.433Z,20.48
2022-08-01T01:27:19.385Z,20.50
2022-08-01T01:28:19.340Z,20.49
2022-08-01T01:29:19.298Z,20.53
2022-08-01T01:30:19.254Z,20.44
2022-08-01T01:31:19.211Z,20.50
2022-08-01T01:32:19.167Z,20.52
2022-08-01T01:33:19.125Z,20.46
2022-08-01T01:34:19.081Z,20.49
2022-08-01T01:35:19.040Z,20.53
2022-08-01T01:36:19.008Z,20.46
2022-08-01T01:37:18.951Z,20.40
2022-08-01T01:38:18.908Z,20.48
2022-08-01T01:39:18.869Z,20.50
2022-08-01T01:40:18.824Z,20.48
2022-08-01T01:41:18.792Z,20.55
2022-08-01T01:42:18.749Z,20.44
2022-08-01T01:43:18.697Z,20.49
2022-08-01T01:44:18.649Z,20.46
2022-08-01T01:45:18.622Z,20.44
2022-08-01T01:46:18.562Z,20.50
2022-08-01T01:47:18.526Z,20.49
2022-08-01T01:48:18.475Z,20.46
2022-08-01T01:49:18.492Z,20.49
2022-08-01T01:50:18.393Z,20.48
2022-08-01T01:51:18.349Z,20.49
2022-08-01T01:52:18.304Z,20.55
2022-08-01T01:53:18.262Z,20.53
2022-08-01T01:54:18.218Z,20.55
2022-08-01T01:55:18.176Z,20.49
2022-08-01T01:56:18.131Z,20.52
2022-08-01T01:57:18.089Z,20.52
2022-08-01T01:58:18.045Z,20.52
2022-08-01T01:59:18.004Z,20.49
2022-08-01T02:00:17.961Z,20.46
2022-08-01T02:02:06.174Z,20.56
2022-08-01T02:02:18.052Z,20.50
2022-08-01T02:03:17.830Z,20.53
2022-08-01T02:04:17.785Z,20.53
2022-08-01T02:05:17.747Z,20.60
2022-08-01T02:06:17.700Z,20.58
2022-08-01T02:07:17.673Z,20.50
2022-08-01T02:08:17.617Z,20.49
2022-08-01T02:09:17.571Z,20.52
2022-08-01T02:10:17.527Z,20.50
2022-08-01T02:11:17.492Z,20.52
2022-08-01T02:12:17.476Z,20.48
2022-08-01T02:13:17.398Z,20.50
2022-08-01T02:14:17.353Z,20.48
2022-08-01T02:15:17.312Z,20.50
2022-08-01T02:16:17.269Z,20.49
2022-08-01T02:17:17.226Z,20.58
2022-08-01T02:18:17.182Z,20.52
2022-08-01T02:19:17.139Z,20.52
2022-08-01T02:20:17.104Z,20.50
2022-08-01T02:21:17.053Z,20.52
2022-08-01T02:22:17.009Z,20.53
2022-08-01T02:23:16.966Z,20.46
2022-08-01T02:24:16.922Z,20.53
2022-08-01T02:25:16.881Z,20.55
2022-08-01T02:26:16.840Z,20.56
2022-08-01T02:27:16.800Z,20.48
2022-08-01T02:28:16.749Z,20.49
2022-08-01T02:29:16.708Z,20.52
2022-08-01T02:30:16.663Z,20.44
2022-08-01T02:31:16.627Z,20.49
2022-08-01T02:32:16.577Z,20.42
2022-08-01T02:33:16.539Z,20.52
2022-08-01T02:34:16.493Z,20.52
2022-08-01T02:35:16.450Z,20.44
2022-08-01T02:36:31.145Z,20.48
2022-08-01T02:37:16.361Z,20.42
2022-08-01T02:38:16.319Z,20.46
2022-08-01T02:39:16.276Z,20.50
2022-08-01T02:40:16.231Z,20.48
2022-08-01T02:41:16.191Z,20.52
2022-08-01T02:42:16.147Z,20.44
2022-08-01T02:43:16.109Z,20.55
2022-08-01T02:44:16.059Z,20.49
2022-08-01T02:45:16.017Z,20.52
2022-08-01T02:46:15.973Z,20.48
2022-08-01T02:48:15.889Z,20.48
2022-08-01T02:49:15.920Z,20.55
2022-08-01T02:50:15.802Z,20.52
2022-08-01T02:51:15.756Z,20.48
2022-08-01T02:52:15.714Z,20.48
2022-08-01T02:53:15.668Z,20.44
2022-08-01T02:54:15.627Z,20.50
2022-08-01T02:55:15.583Z,20.46
2022-08-01T02:56:15.543Z,20.40
2022-08-01T02:57:15.496Z,20.50
2022-08-01T02:58:15.456Z,20.44
2022-08-01T02:59:15.413Z,20.52
2022-08-01T03:00:15.371Z,20.50
2022-08-01T03:01:15.427Z,20.53
2022-08-01T03:02:15.284Z,20.52
2022-08-01T03:03:15.242Z,20.42
2022-08-01T03:04:15.196Z,20.52
2022-08-01T03:05:15.152Z,20.49
2022-08-01T03:06:15.110Z,20.52
2022-08-01T03:07:15.065Z,20.49
2022-08-01T03:08:15.128Z,20.50
2022-08-01T03:09:16.684Z,20.44
2022-08-01T03:10:14.937Z,20.44
2022-08-01T03:11:14.895Z,20.52
2022-08-01T03:12:14.850Z,20.50
2022-08-01T03:13:14.806Z,20.48
2022-08-01T03:14:14.767Z,20.46
2022-08-01T03:15:14.721Z,20.50
2022-08-01T03:16:14.677Z,20.48
2022-08-01T03:17:14.633Z,20.44
2022-08-01T03:18:14.593Z,20.48
2022-08-01T03:19:14.549Z,20.40
2022-08-01T03:20:14.508Z,20.44
2022-08-01T03:21:14.461Z,20.46
2022-08-01T03:22:14.420Z,20.40
2022-08-01T03:23:14.376Z,20.40
2022-08-01T03:24:14.332Z,20.44
2022-08-01T03:25:14.288Z,20.39
2022-08-01T03:26:14.246Z,20.40
2022-08-01T03:27:14.202Z,20.48
2022-08-01T03:28:14.161Z,20.37
2022-08-01T03:29:14.116Z,20.37
2022-08-01T03:30:14.075Z,20.42
2022-08-01T03:31:14.029Z,20.39
2022-08-01T03:32:13.988Z,20.48
2022-08-01T03:33:14.491Z,20.48
2022-08-01T03:34:13.909Z,20.46
2022-08-01T03:35:13.858Z,20.46
2022-08-01T03:36:13.815Z,20.42
2022-08-01T03:37:13.771Z,20.37
2022-08-01T03:38:16.263Z,20.42
2022-08-01T03:39:13.687Z,20.39
2022-08-01T03:40:13.647Z,20.46
2022-08-01T03:41:13.598Z,20.44
2022-08-01T03:42:13.553Z,20.52
2022-08-01T03:43:13.513Z,20.44
2022-08-01T03:44:13.476Z,20.48
2022-08-01T03:45:13.635Z,20.44
2022-08-01T03:46:13.382Z,20.44
2022-08-01T03:47:13.344Z,20.46
2022-08-01T03:48:13.298Z,20.40
2022-08-01T03:49:13.302Z,20.46
2022-08-01T03:50:13.209Z,20.42
2022-08-01T03:51:13.171Z,20.48
2022-08-01T03:52:13.124Z,20.48
2022-08-01T03:53:13.077Z,20.42
2022-08-01T03:54:13.037Z,20.48
2022-08-01T03:55:12.994Z,20.46
2022-08-01T03:56:12.954Z,20.44
2022-08-01T03:57:35.688Z,20.39
2022-08-01T03:58:12.868Z,20.49
2022-08-01T03:59:12.820Z,20.42
2022-08-01T04:00:12.780Z,20.44
2022-08-01T04:01:15.652Z,20.46
2022-08-01T04:02:12.690Z,20.42
2022-08-01T04:03:12.647Z,20.46
2022-08-01T04:04:12.604Z,20.39
2022-08-01T04:05:12.560Z,20.48
2022-08-01T04:06:12.518Z,20.42
2022-08-01T04:07:12.473Z,20.42
2022-08-01T04:08:12.432Z,20.42
2022-08-01T04:09:13.745Z,20.39
2022-08-01T04:10:12.369Z,20.37
2022-08-01T04:11:12.299Z,20.37
2022-08-01T04:12:12.666Z,20.42
2022-08-01T04:13:12.213Z,20.46
2022-08-01T04:14:12.172Z,20.40
2022-08-01T04:15:12.129Z,20.40
2022-08-01T04:16:12.092Z,20.44
2022-08-01T04:17:12.041Z,20.42
2022-08-01T04:18:12.000Z,20.37
2022-08-01T04:19:11.956Z,20.42
2022-08-01T04:20:11.916Z,20.42
2022-08-01T04:21:11.869Z,20.42
2022-08-01T04:22:11.825Z,20.49
2022-08-01T04:23:11.783Z,20.46
2022-08-01T04:24:11.741Z,20.44
2022-08-01T04:25:11.696Z,20.44
2022-08-01T04:26:11.653Z,20.39
2022-08-01T04:27:11.609Z,20.46
2022-08-01T04:28:11.568Z,20.44
2022-08-01T04:29:11.521Z,20.46
2022-08-01T04:30:11.481Z,20.48
2022-08-01T04:31:11.436Z,20.49
2022-08-01T04:32:11.396Z,20.48
2022-08-01T04:33:11.349Z,20.52
2022-08-01T04:34:11.307Z,20.49
2022-08-01T04:35:22.949Z,20.40
2022-08-01T04:36:11.223Z,20.53
2022-08-01T04:37:11.177Z,20.48
2022-08-01T04:38:11.134Z,20.50
2022-08-01T04:39:11.090Z,20.46
2022-08-01T04:40:11.047Z,20.46
2022-08-01T04:41:11.008Z,20.49
2022-08-01T04:42:10.966Z,20.48
2022-08-01T04:43:10.922Z,20.44
2022-08-01T04:44:10.884Z,20.52
2022-08-01T04:45:10.834Z,20.53
2022-08-01T04:46:10.790Z,20.55
2022-08-01T04:47:10.745Z,20.56
2022-08-01T04:48:10.709Z,20.56
2022-08-01T04:49:10.721Z,20.52
2022-08-01T04:50:10.616Z,20.49
2022-08-01T04:51:10.571Z,20.49
2022-08-01T04:52:15.175Z,20.53
2022-08-01T04:53:10.486Z,20.50
2022-08-01T04:54:10.442Z,20.49
2022-08-01T04:55:10.400Z,20.56
2022-08-01T04:56:10.355Z,20.44
2022-08-01T04:57:10.315Z,20.52
2022-08-01T04:58:10.269Z,20.50
2022-08-01T04:59:10.229Z,20.48
2022-08-01T05:00:10.183Z,20.50
2022-08-01T05:01:10.254Z,20.52
2022-08-01T05:02:10.096Z,20.50
2022-08-01T05:03:10.057Z,20.56
2022-08-01T05:04:10.011Z,20.53
2022-08-01T05:05:09.967Z,20.53
2022-08-01T05:06:09.928Z,20.44
2022-08-01T05:07:09.881Z,20.50
2022-08-01T05:08:09.837Z,20.52
2022-08-01T05:09:09.797Z,20.50
2022-08-01T05:10:09.773Z,20.52
2022-08-01T05:11:09.712Z,20.49
2022-08-01T05:12:09.690Z,20.49
2022-08-01T05:13:09.621Z,20.50
2022-08-01T05:14:09.578Z,20.50
2022-08-01T05:15:15.200Z,20.48
2022-08-01T05:16:09.491Z,20.50
2022-08-01T05:17:09.449Z,20.49
2022-08-01T05:18:09.475Z,20.49
2022-08-01T05:19:09.366Z,20.46
2022-08-01T05:20:09.320Z,20.48
2022-08-01T05:21:09.279Z,20.49
2022-08-01T05:22:09.255Z,20.48
2022-08-01T05:23:14.585Z,20.48
2022-08-01T05:24:09.146Z,20.49
2022-08-01T05:25:09.125Z,20.49
2022-08-01T05:26:09.356Z,20.49
2022-08-01T05:27:09.018Z,20.50
2022-08-01T05:28:08.973Z,20.44
2022-08-01T05:29:08.933Z,20.50
2022-08-01T05:30:08.887Z,20.53
2022-08-01T05:31:08.846Z,20.55
2022-08-01T05:32:09.265Z,20.58
2022-08-01T05:33:08.763Z,20.53
2022-08-01T05:34:15.285Z,20.55
2022-08-01T05:35:08.678Z,20.60
2022-08-01T05:36:08.628Z,20.60
2022-08-01T05:37:08.589Z,20.60
2022-08-01T05:38:08.543Z,20.53
2022-08-01T05:39:08.501Z,20.56
2022-08-01T05:40:08.457Z,20.60
2022-08-01T05:41:08.411Z,20.55
2022-08-01T05:42:08.783Z,20.58
2022-08-01T05:43:08.329Z,20.59
2022-08-01T05:44:08.283Z,20.55
2022-08-01T05:45:08.240Z,20.52
2022-08-01T05:46:08.196Z,20.64
2022-08-01T05:47:08.154Z,20.58
2022-08-01T05:48:08.113Z,20.56
2022-08-01T05:49:08.165Z,20.55
2022-08-01T05:50:08.024Z,20.59
2022-08-01T05:51:07.983Z,20.67
2022-08-01T05:52:08.449Z,20.52
2022-08-01T05:53:07.895Z,20.67
2022-08-01T05:54:07.851Z,20.66
2022-08-01T05:55:07.812Z,20.63
2022-08-01T05:56:07.765Z,20.60
2022-08-01T05:57:07.726Z,20.63
2022-08-01T05:58:07.718Z,20.56
2022-08-01T05:59:07.641Z,20.58
2022-08-01T06:00:07.591Z,20.52
2022-08-01T06:01:07.550Z,20.60
2022-08-01T06:02:08.042Z,20.55
2022-08-01T06:03:07.463Z,20.55
2022-08-01T06:04:07.423Z,20.58
2022-08-01T06:05:12.672Z,20.59
2022-08-01T06:06:07.332Z,20.60
2022-08-01T06:07:07.297Z,20.64
2022-08-01T06:08:07.263Z,20.64
2022-08-01T06:09:07.205Z,20.55
2022-08-01T06:10:07.162Z,20.60
2022-08-01T06:11:07.118Z,20.63
2022-08-01T06:12:07.419Z,20.67
2022-08-01T06:13:07.032Z,20.64
2022-08-01T06:14:06.993Z,20.66
2022-08-01T06:15:06.947Z,20.73
2022-08-01T06:16:06.901Z,20.71
2022-08-01T06:17:06.860Z,20.68
2022-08-01T06:18:06.815Z,20.71
2022-08-01T06:19:06.775Z,20.70
2022-08-01T06:20:06.730Z,20.85
2022-08-01T06:21:06.688Z,20.82
2022-08-01T06:22:06.952Z,20.78
2022-08-01T06:23:31.235Z,20.83
2022-08-01T06:24:06.559Z,20.78
2022-08-01T06:25:06.516Z,20.83
2022-08-01T06:26:06.477Z,20.88
2022-08-01T06:27:22.051Z,20.88
2022-08-01T06:28:06.386Z,20.89
2022-08-01T06:29:06.342Z,21.01
2022-08-01T06:30:06.297Z,20.96
2022-08-01T06:31:06.261Z,20.98
2022-08-01T06:32:06.664Z,20.96
2022-08-01T06:33:06.170Z,21.04
2022-08-01T06:34:06.128Z,21.13
2022-08-01T06:35:06.087Z,21.10
2022-08-01T06:36:06.041Z,21.14
2022-08-01T06:37:06.934Z,21.10
2022-08-01T06:38:05.953Z,21.25
2022-08-01T06:39:05.914Z,21.26
2022-08-01T06:40:05.882Z,21.23
2022-08-01T06:41:05.826Z,21.29
2022-08-01T06:42:06.016Z,21.26
2022-08-01T06:43:05.744Z,21.28
2022-08-01T06:44:05.702Z,21.29
2022-08-01T06:45:05.667Z,21.38
2022-08-01T06:46:05.612Z,21.33
2022-08-01T06:47:05.571Z,21.28
2022-08-01T06:48:05.525Z,21.35
2022-08-01T06:49:05.556Z,21.33
2022-08-01T06:50:05.442Z,21.35
2022-08-01T06:51:05.400Z,21.37
2022-08-01T06:52:05.715Z,21.41
2022-08-01T06:53:05.311Z,21.41
2022-08-01T06:54:05.268Z,21.37
2022-08-01T06:55:05.237Z,21.30
2022-08-01T06:56:05.181Z,21.40
2022-08-01T06:57:05.141Z,21.37
2022-08-01T06:58:05.194Z,21.35
2022-08-01T06:59:05.056Z,21.35
2022-08-01T07:00:05.011Z,21.47
2022-08-01T07:01:05.223Z,21.50
2022-08-01T07:02:05.322Z,21.48
2022-08-01T07:03:04.885Z,21.44
2022-08-01T07:04:04.838Z,21.51
2022-08-01T07:06:04.757Z,21.56
2022-08-01T07:07:04.711Z,21.59
2022-08-01T07:08:04.672Z,21.65
2022-08-01T07:09:09.599Z,21.62
2022-08-01T07:10:04.585Z,21.62
2022-08-01T07:11:04.538Z,21.69
2022-08-01T07:12:04.776Z,21.75
2022-08-01T07:13:04.452Z,21.75
2022-08-01T07:14:04.412Z,21.81
2022-08-01T07:15:04.377Z,21.91
2022-08-01T07:16:04.328Z,21.92
2022-08-01T07:17:04.281Z,22.01
2022-08-01T07:18:04.245Z,22.12
2022-08-01T07:19:04.196Z,22.07
2022-08-01T07:20:04.163Z,22.08
2022-08-01T07:21:04.807Z,22.10
2022-08-01T07:22:04.276Z,22.14
2022-08-01T07:23:04.027Z,22.21
2022-08-01T07:24:13.163Z,22.22
2022-08-01T07:25:03.941Z,22.26
2022-08-01T07:26:03.901Z,22.30
2022-08-01T07:27:11.569Z,22.30
2022-08-01T07:28:03.816Z,22.33
2022-08-01T07:29:03.770Z,22.36
2022-08-01T07:30:03.730Z,22.41
2022-08-01T07:31:03.687Z,22.37
2022-08-01T07:32:03.883Z,22.51
2022-08-01T07:33:03.600Z,22.51
2022-08-01T07:34:03.560Z,22.56
2022-08-01T07:35:03.516Z,22.63
2022-08-01T07:36:03.487Z,22.61
2022-08-01T07:37:03.430Z,22.68
2022-08-01T07:38:03.389Z,22.65
2022-08-01T07:39:03.345Z,22.74
2022-08-01T07:40:03.312Z,22.63
2022-08-01T07:41:03.260Z,22.67
2022-08-01T07:42:07.770Z,22.74
2022-08-01T07:43:03.177Z,22.78
2022-08-01T07:44:04.858Z,22.89
2022-08-01T07:45:03.092Z,22.89
2022-08-01T07:46:03.052Z,22.92
2022-08-01T07:47:03.008Z,22.93
2022-08-01T07:48:02.970Z,22.93
2022-08-01T07:49:03.013Z,23.01
2022-08-01T07:50:02.885Z,23.06
2022-08-01T07:51:02.839Z,23.10
2022-08-01T07:52:13.582Z,23.11
2022-08-01T07:53:02.753Z,23.08
2022-08-01T07:54:02.715Z,23.13
2022-08-01T07:55:02.672Z,23.16
2022-08-01T07:56:02.631Z,23.32
2022-08-01T07:57:02.586Z,23.20
2022-08-01T07:58:02.545Z,23.25
2022-08-01T07:59:02.504Z,23.26
2022-08-01T08:00:02.462Z,23.21
2022-08-01T08:01:02.416Z,23.25
2022-08-01T08:02:02.511Z,23.23
2022-08-01T08:03:02.333Z,23.28
2022-08-01T08:04:02.291Z,23.23
2022-08-01T08:05:02.249Z,23.13
2022-08-01T08:06:02.210Z,23.10
2022-08-01T08:07:02.165Z,23.13
2022-08-01T08:08:02.141Z,23.14
2022-08-01T08:09:02.079Z,23.13
2022-08-01T08:10:02.038Z,23.08
2022-08-01T08:11:01.997Z,23.06
2022-08-01T08:12:01.961Z,23.14
2022-08-01T08:13:01.913Z,23.10
2022-08-01T08:14:01.874Z,23.11
2022-08-01T08:15:01.830Z,23.11
2022-08-01T08:16:01.786Z,23.13
2022-08-01T08:17:01.820Z,23.16
2022-08-01T08:18:01.702Z,23.13
2022-08-01T08:19:01.660Z,23.16
2022-08-01T08:20:01.620Z,23.10
2022-08-01T08:21:06.293Z,23.23
2022-08-01T08:22:01.533Z,23.32
2022-08-01T08:24:01.453Z,23.39
2022-08-01T08:25:01.408Z,23.40
2022-08-01T08:26:01.378Z,23.52
2022-08-01T08:27:01.325Z,23.48
2022-08-01T08:28:01.281Z,23.52
2022-08-01T08:29:01.241Z,23.49
2022-08-01T08:30:01.197Z,23.49
2022-08-01T08:31:01.156Z,23.47
2022-08-01T08:32:01.110Z,23.55
2022-08-01T08:33:01.075Z,23.51
2022-08-01T08:34:01.031Z,23.54
2022-08-01T08:35:00.987Z,23.45
2022-08-01T08:36:00.943Z,23.49
2022-08-01T08:37:00.904Z,23.47
2022-08-01T08:38:00.858Z,23.55
2022-08-01T08:39:00.819Z,23.49
2022-08-01T08:40:00.776Z,23.51
2022-08-01T08:41:00.740Z,23.62
2022-08-01T08:42:00.696Z,23.51
2022-08-01T08:43:00.659Z,23.59
2022-08-01T08:44:00.607Z,23.55
2022-08-01T08:45:00.565Z,23.64
2022-08-01T08:46:00.693Z,23.62
2022-08-01T08:47:00.492Z,23.63
2022-08-01T08:48:00.442Z,23.63
2022-08-01T08:49:00.463Z,23.71
2022-08-01T08:50:00.357Z,23.76
2022-08-01T08:51:00.334Z,23.77
2022-08-01T08:52:00.274Z,23.82
2022-08-01T08:53:00.230Z,23.94
2022-08-01T08:54:00.187Z,23.95
2022-08-01T08:55:00.161Z,23.95
2022-08-01T08:56:00.108Z,24.03
2022-08-01T08:57:00.066Z,23.96
2022-08-01T08:58:00.020Z,24.01
2022-08-01T08:58:59.980Z,23.99
2022-08-01T08:59:59.939Z,23.99
2022-08-01T09:00:59.896Z,24.07
2022-08-01T09:01:59.854Z,24.09
2022-08-01T09:02:59.905Z,24.07
2022-08-01T09:03:59.769Z,24.03
2022-08-01T09:04:59.728Z,24.04
2022-08-01T09:05:59.684Z,24.04
2022-08-01T09:06:59.659Z,23.95
2022-08-01T09:07:59.601Z,23.99
2022-08-01T09:08:59.560Z,24.07
2022-08-01T09:09:59.518Z,24.13
2022-08-01T09:10:59.478Z,24.16
2022-08-01T09:11:59.438Z,24.10
2022-08-01T09:12:59.393Z,24.14
2022-08-01T09:13:59.354Z,24.22
2022-08-01T09:14:59.309Z,24.26
2022-08-01T09:15:59.272Z,24.29
2022-08-01T09:16:59.227Z,24.32
2022-08-01T09:17:59.185Z,24.34
2022-08-01T09:18:59.142Z,24.46
2022-08-01T09:19:59.321Z,24.59
2022-08-01T09:20:59.060Z,24.53
2022-08-01T09:21:59.073Z,24.66
2022-08-01T09:22:58.974Z,24.68
2022-08-01T09:23:58.940Z,24.79
2022-08-01T09:24:58.892Z,24.69
2022-08-01T09:25:59.387Z,24.66
2022-08-01T09:26:58.810Z,24.78
2022-08-01T09:27:58.770Z,24.68
2022-08-01T09:28:58.725Z,24.66
2022-08-01T09:30:01.398Z,24.68
2022-08-01T09:30:58.643Z,24.68
2022-08-01T09:31:58.604Z,24.71
2022-08-01T09:32:58.560Z,24.78
2022-08-01T09:33:59.027Z,24.89
2022-08-01T09:34:58.478Z,24.85
2022-08-01T09:35:58.447Z,24.86
2022-08-01T09:36:58.393Z,24.88
2022-08-01T09:37:58.368Z,24.92
2022-08-01T09:38:58.314Z,24.88
2022-08-01T09:39:58.272Z,24.86
2022-08-01T09:40:58.862Z,24.78
2022-08-01T09:41:58.229Z,24.74
2022-08-01T09:42:58.144Z,24.77
2022-08-01T09:43:58.108Z,24.68
2022-08-01T09:44:58.060Z,24.63
2022-08-01T09:45:58.515Z,24.65
2022-08-01T09:46:57.979Z,24.68
2022-08-01T09:47:57.941Z,24.65
2022-08-01T09:48:57.932Z,24.69
2022-08-01T09:49:59.233Z,24.68
2022-08-01T09:51:04.895Z,24.68
2022-08-01T09:52:00.318Z,24.65
2022-08-01T09:52:57.731Z,24.62
2022-08-01T09:53:57.690Z,24.65
2022-08-01T09:54:57.648Z,24.62
2022-08-01T09:55:57.609Z,24.68
2022-08-01T09:56:57.564Z,24.69
2022-08-01T09:57:57.529Z,24.68
2022-08-01T09:59:00.526Z,24.68
2022-08-01T09:59:59.019Z,24.79
2022-08-01T10:00:57.397Z,24.78
2022-08-01T10:01:57.357Z,24.89
2022-08-01T10:02:57.348Z,24.86
2022-08-01T10:03:57.336Z,24.99
2022-08-01T10:05:03.228Z,25.03
2022-08-01T10:05:57.199Z,25.04
2022-08-01T10:06:57.148Z,24.97
2022-08-01T10:07:57.875Z,24.94
2022-08-01T10:08:57.065Z,24.96
2022-08-01T10:09:57.026Z,25.03
2022-08-01T10:11:00.207Z,24.89
2022-08-01T10:11:56.943Z,24.96
2022-08-01T10:12:56.900Z,24.89
2022-08-01T10:13:56.859Z,24.86
2022-08-01T10:14:56.816Z,24.81
2022-08-01T10:15:56.779Z,24.79
2022-08-01T10:17:01.437Z,24.77
2022-08-01T10:17:57.398Z,24.75
2022-08-01T10:18:56.653Z,24.84
2022-08-01T10:19:58.204Z,24.75
2022-08-01T10:20:57.941Z,24.63
2022-08-01T10:21:59.085Z,24.77
2022-08-01T10:22:56.485Z,24.78
2022-08-01T10:23:59.945Z,24.74
2022-08-01T10:24:56.403Z,24.74
2022-08-01T10:25:56.377Z,24.81
2022-08-01T10:26:56.356Z,24.66
2022-08-01T10:27:56.279Z,24.78
2022-08-01T10:28:56.236Z,24.79
2022-08-01T10:30:05.961Z,24.77
2022-08-01T10:30:56.186Z,24.71
2022-08-01T10:31:56.114Z,24.77
2022-08-01T10:32:56.069Z,24.86
2022-08-01T10:33:56.043Z,24.88
2022-08-01T10:34:55.995Z,24.89
2022-08-01T10:35:55.973Z,24.93
2022-08-01T10:36:55.902Z,25.04
2022-08-01T10:37:55.864Z,25.15
2022-08-01T10:38:55.822Z,25.31
2022-08-01T10:40:14.136Z,25.48
2022-08-01T10:40:55.740Z,25.61
2022-08-01T10:41:55.699Z,25.71
2022-08-01T10:42:55.658Z,25.77
2022-08-01T10:43:55.618Z,25.86
2022-08-01T10:44:55.575Z,25.93
2022-08-01T10:45:55.535Z,25.89
2022-08-01T10:46:55.491Z,25.91
2022-08-01T10:47:55.453Z,25.88
2022-08-01T10:48:55.435Z,25.86
2022-08-01T10:49:55.369Z,25.81
2022-08-01T10:50:55.337Z,25.74
2022-08-01T10:51:55.288Z,25.70
2022-08-01T10:52:55.243Z,25.67
2022-08-01T10:53:56.052Z,25.66
2022-08-01T10:54:55.167Z,25.58
2022-08-01T10:55:55.323Z,25.54
2022-08-01T10:56:55.082Z,25.48
2022-08-01T10:57:55.041Z,25.52
2022-08-01T10:58:54.999Z,25.49
2022-08-01T11:00:00.980Z,25.44
2022-08-01T11:00:54.945Z,25.34
2022-08-01T11:01:54.968Z,25.43
2022-08-01T11:02:54.833Z,25.43
2022-08-01T11:03:58.358Z,25.34
2022-08-01T11:04:54.751Z,25.30
2022-08-01T11:05:54.711Z,25.34
2022-08-01T11:06:54.671Z,25.30
2022-08-01T11:07:54.629Z,25.31
2022-08-01T11:08:54.587Z,25.31
2022-08-01T11:09:54.549Z,25.34
2022-08-01T11:10:54.501Z,25.39
2022-08-01T11:11:54.463Z,25.39
2022-08-01T11:12:54.418Z,25.48
2022-08-01T11:13:54.380Z,25.48
2022-08-01T11:14:55.885Z,25.56
2022-08-01T11:15:54.309Z,25.63
2022-08-01T11:16:54.256Z,25.74
2022-08-01T11:17:54.783Z,25.71
2022-08-01T11:18:54.175Z,25.80
2022-08-01T11:19:54.135Z,25.78
2022-08-01T11:20:54.092Z,25.83
2022-08-01T11:21:57.590Z,25.91
2022-08-01T11:22:54.010Z,26.03
2022-08-01T11:23:53.972Z,26.04
2022-08-01T11:24:53.927Z,26.18
2022-08-01T11:26:03.973Z,26.19
2022-08-01T11:26:53.846Z,26.39
2022-08-01T11:27:53.809Z,26.45
2022-08-01T11:29:11.227Z,26.48
2022-08-01T11:29:53.724Z,26.52
2022-08-01T11:30:53.682Z,26.61
2022-08-01T11:31:53.659Z,26.60
2022-08-01T11:33:11.549Z,26.64
2022-08-01T11:33:55.147Z,26.76
2022-08-01T11:34:53.518Z,26.79
2022-08-01T11:35:53.479Z,26.83
2022-08-01T11:36:58.893Z,26.88
2022-08-01T11:37:53.400Z,26.91
2022-08-01T11:38:53.356Z,26.97
2022-08-01T11:39:53.316Z,26.98
2022-08-01T11:40:53.274Z,26.98
2022-08-01T11:41:53.238Z,27.05
2022-08-01T11:42:53.192Z,27.03
2022-08-01T11:43:53.155Z,27.04
2022-08-01T11:44:53.123Z,27.07
2022-08-01T11:45:53.076Z,27.01
2022-08-01T11:46:53.031Z,27.07
2022-08-01T11:47:52.993Z,27.20
2022-08-01T11:48:53.034Z,27.15
2022-08-01T11:49:52.911Z,27.29
2022-08-01T11:50:52.869Z,27.41
2022-08-01T11:51:52.831Z,27.41
2022-08-01T11:52:52.788Z,27.55
2022-08-01T11:53:53.580Z,27.50
2022-08-01T11:54:52.708Z,27.60
2022-08-01T11:55:52.671Z,27.75
2022-08-01T11:56:52.632Z,27.81
2022-08-01T11:57:52.594Z,27.90
2022-08-01T11:58:52.560Z,27.91
2022-08-01T12:00:03.428Z,28.01
2022-08-01T12:00:52.464Z,28.09
2022-08-01T12:01:52.479Z,28.22
2022-08-01T12:02:52.385Z,28.28
2022-08-01T12:03:52.346Z,28.35
2022-08-01T12:04:52.306Z,28.49
2022-08-01T12:05:52.268Z,28.65
2022-08-01T12:06:52.228Z,28.60
2022-08-01T12:07:52.188Z,28.67
2022-08-01T12:08:52.145Z,28.70
2022-08-01T12:09:52.106Z,28.82
2022-08-01T12:10:52.067Z,28.87
2022-08-01T12:11:52.028Z,28.94
2022-08-01T12:12:51.985Z,29.03
2022-08-01T12:13:51.950Z,29.03
2022-08-01T12:14:51.908Z,29.10
2022-08-01T12:15:56.523Z,29.21
2022-08-01T12:16:51.826Z,29.20
2022-08-01T12:17:57.955Z,29.30
2022-08-01T12:18:51.747Z,29.30
2022-08-01T12:19:51.711Z,29.30
2022-08-01T12:20:56.917Z,29.34
2022-08-01T12:21:55.872Z,29.37
2022-08-01T12:22:51.592Z,29.40
2022-08-01T12:23:51.552Z,29.59
2022-08-01T12:24:51.510Z,29.52
2022-08-01T12:25:51.473Z,29.61
2022-08-01T12:26:51.432Z,29.62
2022-08-01T12:27:56.025Z,29.64
2022-08-01T12:28:51.353Z,29.55
2022-08-01T12:29:51.317Z,29.59
2022-08-01T12:30:51.279Z,29.55
2022-08-01T12:31:51.236Z,29.49
2022-08-01T12:32:51.206Z,29.37
2022-08-01T12:33:51.156Z,29.31
2022-08-01T12:34:51.119Z,29.24
2022-08-01T12:35:51.081Z,29.24
2022-08-01T12:36:51.037Z,29.28
2022-08-01T12:37:51.000Z,29.53
2022-08-01T12:38:50.960Z,29.59
2022-08-01T12:39:50.926Z,29.58
2022-08-01T12:40:53.241Z,29.55
2022-08-01T12:41:50.844Z,29.55
2022-08-01T12:42:50.804Z,29.77
2022-08-01T12:43:50.771Z,29.94
2022-08-01T12:44:50.723Z,30.11
2022-08-01T12:45:54.530Z,30.21
2022-08-01T12:46:50.643Z,30.38
2022-08-01T12:47:50.607Z,30.49
2022-08-01T12:48:50.612Z,30.67
2022-08-01T12:49:50.532Z,30.61
2022-08-01T12:50:50.491Z,30.78
2022-08-01T12:51:57.420Z,30.69
2022-08-01T12:52:50.410Z,30.63
2022-08-01T12:53:50.385Z,30.80
2022-08-01T12:54:50.329Z,30.92
2022-08-01T12:55:58.385Z,31.22
2022-08-01T12:56:50.253Z,31.29
2022-08-01T12:57:50.219Z,31.30
2022-08-01T12:58:50.175Z,31.50
2022-08-01T12:59:50.139Z,31.67